Time;durP1;ratioP1;P1;durP2;ratioP2;P2;SDS_P1;SDS_P2;PMS_P1;PMS_P2;Temp;Humidity;BMP_temperature;BMP_pressure;BME280_temperature;BME280_humidity;BME280_pressure;Samples;Min_cycle;Max_cycle;Signal;HPM_P1;HPM_P2
2021/01/30 00:02:05;;;;;;;33.58;13.23;;;;;;;;;;5035090;28;20052;-81
2021/01/30 00:04:32;;;;;;;27.52;11.20;;;;;;;;;;5035231;28;20053;-81
2021/01/30 00:07:04;;;;;;;27.35;10.38;;;;;;;;;;5053105;28;20124;-81
2021/01/30 00:09:30;;;;;;;30.77;12.07;;;;;;;;;;5051693;28;20091;-82
2021/01/30 00:11:58;;;;;;;28.60;12.82;;;;;;;;;;5049562;28;20737;-82
2021/01/30 00:14:31;;;;;;;34.97;13.52;;;;;;;;;;5034613;28;20045;-82
2021/01/30 00:16:58;;;;;;;30.30;12.15;;;;;;;;;;5034685;28;20089;-82
2021/01/30 00:19:25;;;;;;;30.05;12.70;;;;;;;;;;5030620;28;20099;-82
2021/01/30 00:21:53;;;;;;;27.63;11.10;;;;;;;;;;5051256;28;20116;-82
2021/01/30 00:24:20;;;;;;;34.40;12.75;;;;;;;;;;5052608;28;20053;-82
2021/01/30 00:26:49;;;;;;;31.73;11.75;;;;;;;;;;5035629;28;20083;-82
2021/01/30 00:29:16;;;;;;;30.48;12.18;;;;;;;;;;5052154;28;20103;-82
2021/01/30 00:31:44;;;;;;;33.00;12.18;;;;;;;;;;5051197;28;20049;-82
2021/01/30 00:34:10;;;;;;;31.15;12.05;;;;;;;;;;5034799;28;20064;-82
2021/01/30 00:36:45;;;;;;;34.58;12.02;;;;;;;;;;5032730;28;20107;-82
2021/01/30 00:39:12;;;;;;;29.40;12.65;;;;;;;;;;5052629;28;20095;-82
2021/01/30 00:41:38;;;;;;;33.92;12.18;;;;;;;;;;5052228;28;20076;-81
2021/01/30 00:44:13;;;;;;;29.05;11.93;;;;;;;;;;5035405;28;20076;-81
2021/01/30 00:46:40;;;;;;;;;;;;;;;;;;5034968;28;20077;-81
2021/01/30 00:49:15;;;;;;;31.95;12.48;;;;;;;;;;5034390;28;20437;-81
2021/01/30 00:51:41;;;;;;;;;;;;;;;;;;5034902;28;20045;-82
2021/01/30 00:54:09;;;;;;;37.40;12.55;;;;;;;;;;5034917;28;19927;-82
2021/01/30 00:56:35;;;;;;;28.65;11.20;;;;;;;;;;5052499;28;20527;-81
2021/01/30 00:59:02;;;;;;;31.92;12.15;;;;;;;;;;5052349;28;20049;-81
2021/01/30 01:01:35;;;;;;;31.70;12.35;;;;;;;;;;5032551;28;20045;-82
2021/01/30 01:04:02;;;;;;;36.25;14.27;;;;;;;;;;5052144;28;20053;-81
2021/01/30 01:06:28;;;;;;;38.90;12.75;;;;;;;;;;5034354;28;20124;-81
2021/01/30 01:08:55;;;;;;;32.75;13.18;;;;;;;;;;5052218;28;20049;-81
2021/01/30 01:11:22;;;;;;;35.80;13.27;;;;;;;;;;5034235;28;20128;-82
2021/01/30 01:13:51;;;;;;;36.97;13.93;;;;;;;;;;5034134;28;20076;-81
2021/01/30 01:16:18;;;;;;;41.75;14.20;;;;;;;;;;5051547;28;20048;-81
2021/01/30 01:18:45;;;;;;;36.05;14.23;;;;;;;;;;5052189;28;20122;-81
2021/01/30 01:21:12;;;;;;;35.58;14.02;;;;;;;;;;5051869;28;20041;-81
2021/01/30 01:23:42;;;;;;;38.60;14.65;;;;;;;;;;5034280;28;20091;-82
2021/01/30 01:26:09;;;;;;;39.30;14.32;;;;;;;;;;5036222;28;20124;-81
2021/01/30 01:28:36;;;;;;;36.60;15.23;;;;;;;;;;5054241;28;20045;-82
2021/01/30 01:31:06;;;;;;;32.65;14.40;;;;;;;;;;5037722;28;20052;-81
2021/01/30 01:33:32;;;;;;;40.05;14.32;;;;;;;;;;5037868;28;20045;-81
2021/01/30 01:35:59;;;;;;;38.60;15.23;;;;;;;;;;5055762;28;20079;-81
2021/01/30 01:38:26;;;;;;;37.63;14.00;;;;;;;;;;5037874;28;20045;-81
2021/01/30 01:40:53;;;;;;;35.75;13.85;;;;;;;;;;5034072;28;20842;-81
2021/01/30 01:43:22;;;;;;;33.35;13.95;;;;;;;;;;5052111;28;20065;-81
2021/01/30 01:45:59;;;;;;;31.85;12.85;;;;;;;;;;5037663;28;20049;-81
2021/01/30 01:48:28;;;;;;;34.40;12.57;;;;;;;;;;5055603;28;20049;-80
2021/01/30 01:51:03;;;;;;;37.72;12.85;;;;;;;;;;5030587;28;20099;-81
2021/01/30 01:53:34;;;;;;;31.60;12.93;;;;;;;;;;5055648;28;20075;-81
2021/01/30 01:56:11;;;;;;;34.33;12.07;;;;;;;;;;5037365;28;20498;-81
2021/01/30 01:58:41;;;;;;;34.95;13.80;;;;;;;;;;5055366;28;20098;-81
2021/01/30 02:01:08;;;;;;;32.65;12.73;;;;;;;;;;5052316;28;20083;-80
2021/01/30 02:03:35;;;;;;;39.83;14.50;;;;;;;;;;5037151;28;20452;-80
2021/01/30 02:06:11;;;;;;;34.78;13.00;;;;;;;;;;5054636;28;20154;-81
2021/01/30 02:08:40;;;;;;;32.78;13.38;;;;;;;;;;5055304;28;20072;-80
2021/01/30 02:11:06;;;;;;;32.63;13.10;;;;;;;;;;5055329;28;20076;-80
2021/01/30 02:13:40;;;;;;;33.55;12.88;;;;;;;;;;5037343;28;20049;-80
2021/01/30 02:16:10;;;;;;;34.45;12.27;;;;;;;;;;5055256;28;20157;-81
2021/01/30 02:18:43;;;;;;;31.10;12.68;;;;;;;;;;5054777;28;20041;-81
2021/01/30 02:21:31;;;;;;;30.80;12.38;;;;;;;;;;5054971;28;20052;-81
2021/01/30 02:24:01;;;;;;;30.50;10.52;;;;;;;;;;5029014;28;20494;-80
2021/01/30 02:26:47;;;;;;;31.60;11.52;;;;;;;;;;5054582;28;20056;-80
2021/01/30 02:29:14;;;;;;;;;;;;;;;;;;5036767;28;20131;-80
2021/01/30 02:32:03;;;;;;;28.30;10.50;;;;;;;;;;5054000;28;19975;-80
2021/01/30 02:34:51;;;;;;;26.63;11.05;;;;;;;;;;5026464;28;20045;-80
2021/01/30 02:37:22;;;;;;;26.85;10.20;;;;;;;;;;5037028;28;20073;-79
2021/01/30 02:39:55;;;;;;;28.52;11.32;;;;;;;;;;5036225;28;20148;-79
2021/01/30 02:42:34;;;;;;;28.90;10.65;;;;;;;;;;5053123;28;20076;-79
2021/01/30 02:45:04;;;;;;;28.55;10.63;;;;;;;;;;5027995;28;20479;-80
2021/01/30 02:47:39;;;;;;;28.67;10.77;;;;;;;;;;5035334;28;20103;-79
2021/01/30 02:50:12;;;;;;;20.60;9.55;;;;;;;;;;5035128;28;20052;-79
2021/01/30 02:52:40;;;;;;;20.90;8.85;;;;;;;;;;5048907;28;20068;-79
2021/01/30 02:55:09;;;;;;;25.30;9.73;;;;;;;;;;5050320;28;20119;-79
2021/01/30 02:57:36;;;;;;;21.85;9.52;;;;;;;;;;5051124;28;20128;-79
2021/01/30 03:00:05;;;;;;;20.48;8.48;;;;;;;;;;5050885;28;20136;-78
2021/01/30 03:02:31;;;;;;;20.08;8.18;;;;;;;;;;5049856;28;20434;-78
2021/01/30 03:04:59;;;;;;;21.70;8.60;;;;;;;;;;5050490;28;20057;-78
2021/01/30 03:07:29;;;;;;;20.10;8.27;;;;;;;;;;5045022;28;20048;-78
2021/01/30 03:10:12;;;;;;;19.92;8.13;;;;;;;;;;5031088;28;20073;-78
2021/01/30 03:12:51;;;;;;;20.27;8.43;;;;;;;;;;5048611;28;20049;-78
2021/01/30 03:15:17;;;;;;;18.38;7.07;;;;;;;;;;5028077;28;20383;-78
2021/01/30 03:17:46;;;;;;;15.75;7.30;;;;;;;;;;5049517;28;20072;-78
2021/01/30 03:20:14;;;;;;;17.77;6.40;;;;;;;;;;5049171;28;20056;-78
2021/01/30 03:22:41;;;;;;;13.35;6.55;;;;;;;;;;5049944;28;20080;-78
2021/01/30 03:25:09;;;;;;;14.73;6.57;;;;;;;;;;5050914;28;20694;-78
2021/01/30 03:27:36;;;;;;;13.65;5.93;;;;;;;;;;5048668;28;20091;-78
2021/01/30 03:30:06;;;;;;;13.80;5.47;;;;;;;;;;5043266;28;20156;-78
2021/01/30 03:32:34;;;;;;;11.55;5.75;;;;;;;;;;5030859;28;20068;-78
2021/01/30 03:35:03;;;;;;;10.15;5.18;;;;;;;;;;5032978;28;20057;-77
2021/01/30 03:37:29;;;;;;;13.35;4.90;;;;;;;;;;5048840;28;20107;-78
2021/01/30 03:39:56;;;;;;;10.77;4.72;;;;;;;;;;5049545;28;20056;-78
2021/01/30 03:42:23;;;;;;;10.27;4.70;;;;;;;;;;5048811;28;20052;-78
2021/01/30 03:44:50;;;;;;;8.95;4.57;;;;;;;;;;5050241;28;20085;-78
2021/01/30 03:47:16;;;;;;;8.88;4.47;;;;;;;;;;5049360;28;20077;-78
2021/01/30 03:49:43;;;;;;;9.40;4.30;;;;;;;;;;5044601;28;20103;-78
2021/01/30 03:52:11;;;;;;;6.80;3.80;;;;;;;;;;5048887;28;20446;-77
2021/01/30 03:54:38;;;;;;;7.53;3.78;;;;;;;;;;5031589;28;20053;-77
2021/01/30 03:57:05;;;;;;;8.27;3.80;;;;;;;;;;5044252;28;20384;-77
2021/01/30 03:59:32;;;;;;;9.80;3.97;;;;;;;;;;5045895;28;20080;-78
2021/01/30 04:01:58;;;;;;;8.45;3.70;;;;;;;;;;5048547;28;20052;-78
2021/01/30 04:04:25;;;;;;;6.88;3.35;;;;;;;;;;5040943;28;20457;-78
2021/01/30 04:06:54;;;;;;;6.97;3.45;;;;;;;;;;5049761;28;20056;-78
2021/01/30 04:09:22;;;;;;;6.22;3.17;;;;;;;;;;5049731;28;20045;-78
2021/01/30 04:11:50;;;;;;;6.07;3.15;;;;;;;;;;5049653;28;20550;-78
2021/01/30 04:14:18;;;;;;;9.00;2.90;;;;;;;;;;5050290;28;20053;-78
2021/01/30 04:16:45;;;;;;;6.18;2.80;;;;;;;;;;5051047;28;20068;-78
2021/01/30 04:19:12;;;;;;;5.78;2.92;;;;;;;;;;5050249;28;20227;-78
2021/01/30 04:21:39;;;;;;;6.85;2.85;;;;;;;;;;5051397;28;20075;-78
2021/01/30 04:24:06;;;;;;;4.63;2.40;;;;;;;;;;5051374;28;20065;-78
2021/01/30 04:26:32;;;;;;;4.55;2.45;;;;;;;;;;5039783;28;20041;-78
2021/01/30 04:28:59;;;;;;;4.47;2.35;;;;;;;;;;5045749;28;20095;-78
2021/01/30 04:31:26;;;;;;;4.57;2.17;;;;;;;;;;5050840;28;20776;-78
2021/01/30 04:33:53;;;;;;;6.43;3.13;;;;;;;;;;5050456;28;20055;-78
2021/01/30 04:36:20;;;;;;;5.70;2.60;;;;;;;;;;5050937;28;20060;-78
2021/01/30 04:38:47;;;;;;;6.03;2.75;;;;;;;;;;5050024;28;20545;-79
2021/01/30 04:41:14;;;;;;;4.22;2.33;;;;;;;;;;5044724;28;20045;-79
2021/01/30 04:43:45;;;;;;;5.03;2.20;;;;;;;;;;5033337;28;20140;-79
2021/01/30 04:46:15;;;;;;;4.15;1.80;;;;;;;;;;5050350;28;20136;-78
2021/01/30 04:48:55;;;;;;;4.13;2.03;;;;;;;;;;5050262;28;20052;-78
2021/01/30 04:51:24;;;;;;;4.07;2.00;;;;;;;;;;5050747;28;20083;-80
2021/01/30 04:53:51;;;;;;;4.72;1.42;;;;;;;;;;5052049;28;20049;-79
2021/01/30 04:56:26;;;;;;;4.25;1.75;;;;;;;;;;5050209;28;20122;-79
2021/01/30 04:58:53;;;;;;;;;;;;;;;;;;5051479;28;20055;-78
2021/01/30 05:01:39;;;;;;;2.95;1.60;;;;;;;;;;5036982;28;20015;-79
2021/01/30 05:04:10;;;;;;;4.75;1.80;;;;;;;;;;5049120;28;20056;-78
2021/01/30 05:06:54;;;;;;;4.28;2.30;;;;;;;;;;5029176;28;20128;-78
2021/01/30 05:09:27;;;;;;;4.47;2.45;;;;;;;;;;5053456;28;20793;-79
2021/01/30 05:11:57;;;;;;;10.20;2.53;;;;;;;;;;5053403;28;20131;-79
2021/01/30 05:14:26;;;;;;;7.40;2.55;;;;;;;;;;5048838;28;20045;-79
2021/01/30 05:16:56;;;;;;;7.65;2.65;;;;;;;;;;5054941;28;20109;-79
2021/01/30 05:19:25;;;;;;;7.45;2.63;;;;;;;;;;5055131;28;20056;-79
2021/01/30 05:21:53;;;;;;;7.28;3.03;;;;;;;;;;5045302;28;20136;-79
2021/01/30 05:24:20;;;;;;;9.38;3.22;;;;;;;;;;5054487;28;20616;-78
2021/01/30 05:27:06;;;;;;;7.22;3.00;;;;;;;;;;5037299;28;20128;-79
2021/01/30 05:29:39;;;;;;;7.93;2.90;;;;;;;;;;5044997;28;20131;-78
2021/01/30 05:32:09;;;;;;;16.50;4.85;;;;;;;;;;5051615;28;20493;-79
2021/01/30 05:34:48;;;;;;;10.02;3.65;;;;;;;;;;5052833;28;20041;-78
2021/01/30 05:37:17;;;;;;;11.88;3.05;;;;;;;;;;5048350;28;20045;-79
2021/01/30 05:39:48;;;;;;;7.53;3.05;;;;;;;;;;5053674;28;20136;-79
2021/01/30 05:42:32;;;;;;;6.15;3.15;;;;;;;;;;5045457;28;20102;-78
2021/01/30 05:45:08;;;;;;;8.00;3.22;;;;;;;;;;5053369;28;20049;-79
2021/01/30 05:47:36;;;;;;;6.90;2.95;;;;;;;;;;5054707;28;20167;-78
2021/01/30 05:50:03;;;;;;;9.50;3.67;;;;;;;;;;5054794;28;20052;-79
2021/01/30 05:52:32;;;;;;;8.93;4.07;;;;;;;;;;5054364;28;20045;-78
2021/01/30 05:55:00;;;;;;;9.15;3.47;;;;;;;;;;5044618;28;20081;-78
2021/01/30 05:57:27;;;;;;;14.02;4.78;;;;;;;;;;5047656;28;20073;-79
2021/01/30 06:00:00;;;;;;;8.35;4.03;;;;;;;;;;5054576;28;20448;-78
2021/01/30 06:02:28;;;;;;;11.63;4.57;;;;;;;;;;5055018;28;20059;-79
2021/01/30 06:04:55;;;;;;;13.90;5.90;;;;;;;;;;5029247;28;20075;-79
2021/01/30 06:07:34;;;;;;;13.80;5.22;;;;;;;;;;5046213;28;20239;-79
2021/01/30 06:10:22;;;;;;;10.55;4.97;;;;;;;;;;5048694;28;20124;-80
2021/01/30 06:12:51;;;;;;;21.55;11.18;;;;;;;;;;5037637;28;21453;-79
2021/01/30 06:15:22;;;;;;;19.73;9.93;;;;;;;;;;5036992;28;20084;-80
2021/01/30 06:17:51;;;;;;;16.40;6.85;;;;;;;;;;5045167;28;20454;-79
2021/01/30 06:20:22;;;;;;;14.73;6.47;;;;;;;;;;5036501;28;20053;-79
2021/01/30 06:23:07;;;;;;;12.65;5.15;;;;;;;;;;5054071;28;20513;-79
2021/01/30 06:25:34;;;;;;;;;;;;;;;;;;5052149;28;20077;-79
2021/01/30 06:28:06;;;;;;;14.65;6.95;;;;;;;;;;5036480;28;19921;-79
2021/01/30 06:30:38;;;;;;;18.30;7.40;;;;;;;;;;5053874;28;20041;-79
2021/01/30 06:33:08;;;;;;;17.45;6.80;;;;;;;;;;5053523;28;20128;-79
2021/01/30 06:35:37;;;;;;;20.52;8.43;;;;;;;;;;5036387;28;20045;-78
2021/01/30 06:38:11;;;;;;;20.25;9.05;;;;;;;;;;5048226;28;20044;-79
2021/01/30 06:40:49;;;;;;;25.88;9.63;;;;;;;;;;5044417;28;20080;-79
2021/01/30 06:43:27;;;;;;;23.38;8.40;;;;;;;;;;5052606;28;20501;-77
2021/01/30 06:46:01;;;;;;;21.77;7.50;;;;;;;;;;5053549;28;20122;-78
2021/01/30 06:48:33;;;;;;;20.70;8.18;;;;;;;;;;5053727;28;20132;-78
2021/01/30 06:51:00;;;;;;;19.77;7.28;;;;;;;;;;5052557;28;20124;-78
2021/01/30 06:53:31;;;;;;;24.92;6.97;;;;;;;;;;5036068;28;20041;-78
2021/01/30 06:56:12;;;;;;;32.08;11.32;;;;;;;;;;5029947;28;20486;-78
2021/01/30 06:58:42;;;;;;;31.58;11.07;;;;;;;;;;5053087;28;20047;-78
2021/01/30 07:01:10;;;;;;;14.95;5.65;;;;;;;;;;5053207;28;20139;-77
2021/01/30 07:03:52;;;;;;;15.98;5.57;;;;;;;;;;5053237;28;20055;-77
2021/01/30 07:06:22;;;;;;;14.82;4.35;;;;;;;;;;5030288;28;20081;-80
2021/01/30 07:09:12;;;;;;;9.13;3.80;;;;;;;;;;5053353;28;20116;-78
2021/01/30 07:11:52;;;;;;;12.13;4.43;;;;;;;;;;5026554;28;20521;-77
2021/01/30 07:14:19;;;;;;;14.00;4.45;;;;;;;;;;5052911;28;20592;-78
2021/01/30 07:16:48;;;;;;;17.33;4.78;;;;;;;;;;5052986;28;20557;-76
2021/01/30 07:19:30;;;;;;;17.88;5.75;;;;;;;;;;5043669;28;20080;-78
2021/01/30 07:22:24;;;;;;;17.52;6.97;;;;;;;;;;5041822;28;20729;-79
2021/01/30 07:25:06;;;;;;;17.85;7.38;;;;;;;;;;5041629;28;20113;-80
2021/01/30 07:27:36;;;;;;;16.75;7.22;;;;;;;;;;5042704;28;20489;-77
2021/01/30 07:30:06;;;;;;;18.40;7.53;;;;;;;;;;5042550;28;20132;-75
2021/01/30 07:32:35;;;;;;;15.65;6.82;;;;;;;;;;5034678;28;20568;-79
2021/01/30 07:35:20;;;;;;;17.92;6.28;;;;;;;;;;5053235;28;20405;-80
2021/01/30 07:38:07;;;;;;;16.23;6.13;;;;;;;;;;5053619;28;20045;-80
2021/01/30 07:40:47;;;;;;;18.70;6.53;;;;;;;;;;5053116;28;20091;-80
2021/01/30 07:43:13;;;;;;;17.55;7.13;;;;;;;;;;5055295;28;20132;-80
2021/01/30 07:45:46;;;;;;;21.17;9.25;;;;;;;;;;5053065;28;20095;-80
2021/01/30 07:48:20;;;;;;;24.88;8.90;;;;;;;;;;5052999;28;20053;-80
2021/01/30 07:50:56;;;;;;;23.88;9.02;;;;;;;;;;5052867;28;20045;-80
2021/01/30 07:53:24;;;;;;;23.55;8.18;;;;;;;;;;5026516;28;20073;-80
2021/01/30 07:55:56;;;;;;;17.15;6.35;;;;;;;;;;5052305;28;20083;-79
2021/01/30 07:58:26;;;;;;;24.80;7.50;;;;;;;;;;5042447;28;20132;-79
2021/01/30 08:01:03;;;;;;;17.92;7.45;;;;;;;;;;5027914;28;20481;-82
2021/01/30 08:03:44;;;;;;;16.55;7.00;;;;;;;;;;5052572;28;20051;-80
2021/01/30 08:06:15;;;;;;;23.05;7.20;;;;;;;;;;5057131;28;20077;-80
2021/01/30 08:08:43;;;;;;;23.10;8.13;;;;;;;;;;5035834;28;20076;-80
2021/01/30 08:11:21;;;;;;;19.20;7.97;;;;;;;;;;5051582;28;20172;-80
2021/01/30 08:13:55;;;;;;;21.67;8.38;;;;;;;;;;5051659;28;21478;-80
2021/01/30 08:16:29;;;;;;;32.58;10.07;;;;;;;;;;5044933;28;20057;-80
2021/01/30 08:18:59;;;;;;;20.83;8.63;;;;;;;;;;5033756;28;20432;-81
2021/01/30 08:21:36;;;;;;;15.10;6.95;;;;;;;;;;5042100;28;20135;-80
2021/01/30 08:24:21;;;;;;;24.23;10.90;;;;;;;;;;5045408;28;20111;-79
2021/01/30 08:26:55;;;;;;;23.45;9.15;;;;;;;;;;5051814;28;20090;-80
2021/01/30 08:29:39;;;;;;;24.38;8.18;;;;;;;;;;5051850;28;20453;-80
2021/01/30 08:32:24;;;;;;;26.45;10.68;;;;;;;;;;5030368;28;20099;-79
2021/01/30 08:34:56;;;;;;;16.85;7.57;;;;;;;;;;5033766;28;20128;-80
2021/01/30 08:37:25;;;;;;;20.17;7.07;;;;;;;;;;5018819;28;20898;-80
2021/01/30 08:40:01;;;;;;;15.65;6.20;;;;;;;;;;5051674;28;20135;-80
2021/01/30 08:42:33;;;;;;;15.40;6.00;;;;;;;;;;5050298;28;20624;-80
2021/01/30 08:45:20;;;;;;;15.60;6.43;;;;;;;;;;5044642;28;20443;-80
2021/01/30 08:48:07;;;;;;;15.02;6.38;;;;;;;;;;5033819;28;20049;-79
2021/01/30 08:50:50;;;;;;;18.13;5.97;;;;;;;;;;5021111;28;20087;-80
2021/01/30 08:53:19;;;;;;;14.98;6.28;;;;;;;;;;5042244;28;20048;-80
2021/01/30 08:55:45;;;;;;;13.25;5.85;;;;;;;;;;5051542;28;20557;-80
2021/01/30 08:58:38;;;;;;;14.32;5.78;;;;;;;;;;5052042;28;20044;-80
2021/01/30 09:01:06;;;;;;;14.73;5.70;;;;;;;;;;5042925;28;20084;-80
2021/01/30 09:03:47;;;;;;;14.20;5.70;;;;;;;;;;5036818;28;20052;-80
2021/01/30 09:06:32;;;;;;;22.13;8.95;;;;;;;;;;5051746;28;20053;-79
2021/01/30 09:08:59;;;;;;;;;;;;;;;;;;5026804;28;20045;-79
2021/01/30 09:11:37;;;;;;;16.90;7.40;;;;;;;;;;5051135;28;19942;-80
2021/01/30 09:14:23;;;;;;;17.13;7.45;;;;;;;;;;5045366;28;20501;-80
2021/01/30 09:16:59;;;;;;;19.17;8.18;;;;;;;;;;5040515;28;20037;-80
2021/01/30 09:19:38;;;;;;;27.15;7.95;;;;;;;;;;5051382;28;20048;-80
2021/01/30 09:22:04;;;;;;;19.83;7.90;;;;;;;;;;5044050;28;20544;-79
2021/01/30 09:24:56;;;;;;;22.30;8.20;;;;;;;;;;5042656;28;20363;-79
2021/01/30 09:27:26;;;;;;;24.88;8.20;;;;;;;;;;5042107;28;20867;-79
2021/01/30 09:29:54;;;;;;;23.73;8.65;;;;;;;;;;5049455;28;20045;-79
2021/01/30 09:32:26;;;;;;;26.63;9.13;;;;;;;;;;5047637;28;20072;-78
2021/01/30 09:35:04;;;;;;;28.95;10.40;;;;;;;;;;5042332;28;20131;-78
2021/01/30 09:37:36;;;;;;;22.10;9.55;;;;;;;;;;5051043;28;20073;-78
2021/01/30 09:40:05;;;;;;;18.10;7.35;;;;;;;;;;5049614;28;20768;-78
2021/01/30 09:42:31;;;;;;;15.75;7.10;;;;;;;;;;5047356;28;20057;-78
2021/01/30 09:45:05;;;;;;;17.77;6.40;;;;;;;;;;5049304;28;20084;-78
2021/01/30 09:47:32;;;;;;;20.92;8.50;;;;;;;;;;5051712;28;20096;-78
2021/01/30 09:50:02;;;;;;;14.38;6.53;;;;;;;;;;5053935;28;20041;-77
2021/01/30 09:52:28;;;;;;;14.75;6.47;;;;;;;;;;5053661;28;20494;-78
2021/01/30 09:54:59;;;;;;;20.48;6.95;;;;;;;;;;5052292;28;20106;-77
2021/01/30 09:57:27;;;;;;;13.93;6.53;;;;;;;;;;5052356;28;20045;-78
2021/01/30 09:59:55;;;;;;;20.48;6.88;;;;;;;;;;5044822;28;20449;-77
2021/01/30 10:02:23;;;;;;;15.88;6.40;;;;;;;;;;5052674;28;20088;-77
2021/01/30 10:05:14;;;;;;;15.52;6.90;;;;;;;;;;5053181;28;20432;-77
2021/01/30 10:07:41;;;;;;;13.77;6.57;;;;;;;;;;5052992;28;20055;-77
2021/01/30 10:10:24;;;;;;;15.52;6.13;;;;;;;;;;5053513;28;20127;-77
2021/01/30 10:12:54;;;;;;;28.93;11.67;;;;;;;;;;5048156;28;20052;-78
2021/01/30 10:15:32;;;;;;;18.17;7.95;;;;;;;;;;5035640;28;20057;-78
2021/01/30 10:18:11;;;;;;;11.65;6.28;;;;;;;;;;5028677;28;20095;-78
2021/01/30 10:20:47;;;;;;;11.13;5.60;;;;;;;;;;5053141;28;20087;-77
2021/01/30 10:23:25;;;;;;;17.50;5.95;;;;;;;;;;5053027;28;20053;-77
2021/01/30 10:26:02;;;;;;;15.05;5.88;;;;;;;;;;5052742;28;20053;-78
2021/01/30 10:28:39;;;;;;;15.02;6.07;;;;;;;;;;5052225;28;20080;-77
2021/01/30 10:31:06;;;;;;;17.50;5.82;;;;;;;;;;5050903;28;20069;-77
2021/01/30 10:33:33;;;;;;;10.57;5.50;;;;;;;;;;5051157;28;20063;-76
2021/01/30 10:36:00;;;;;;;13.48;6.13;;;;;;;;;;5051977;28;20053;-76
2021/01/30 10:38:27;;;;;;;17.02;6.43;;;;;;;;;;5051315;28;20076;-76
2021/01/30 10:40:59;;;;;;;13.15;6.05;;;;;;;;;;5041541;28;20052;-76
2021/01/30 10:43:32;;;;;;;18.77;6.47;;;;;;;;;;5049858;28;20137;-77
2021/01/30 10:46:00;;;;;;;16.50;7.63;;;;;;;;;;5039067;28;20104;-76
2021/01/30 10:48:29;;;;;;;21.95;8.15;;;;;;;;;;5052765;28;20063;-77
2021/01/30 10:51:15;;;;;;;18.90;8.25;;;;;;;;;;5045338;28;20049;-78
2021/01/30 10:53:43;;;;;;;14.57;7.15;;;;;;;;;;5049499;28;20083;-78
2021/01/30 10:56:14;;;;;;;14.20;6.88;;;;;;;;;;5037477;28;20075;-79
2021/01/30 10:58:42;;;;;;;15.07;6.10;;;;;;;;;;5052791;28;20075;-81
2021/01/30 11:01:12;;;;;;;9.98;5.35;;;;;;;;;;5037552;28;20129;-81
2021/01/30 11:03:55;;;;;;;8.52;4.78;;;;;;;;;;5050183;28;20695;-80
2021/01/30 11:06:28;;;;;;;9.93;5.22;;;;;;;;;;5053283;28;20087;-81
2021/01/30 11:08:56;;;;;;;9.65;4.68;;;;;;;;;;5053886;28;20044;-82
2021/01/30 11:11:30;;;;;;;10.25;5.18;;;;;;;;;;5051977;28;20076;-80
2021/01/30 11:13:58;;;;;;;13.40;6.22;;;;;;;;;;5045792;28;20045;-79
2021/01/30 11:16:34;;;;;;;15.32;6.65;;;;;;;;;;5052481;28;20076;-81
2021/01/30 11:19:22;;;;;;;18.77;8.38;;;;;;;;;;5028774;28;20052;-80
2021/01/30 11:21:50;;;;;;;15.63;7.97;;;;;;;;;;5049803;28;20470;-81
2021/01/30 11:24:32;;;;;;;17.17;6.57;;;;;;;;;;5056294;28;20119;-80
2021/01/30 11:26:59;;;;;;;17.10;8.52;;;;;;;;;;5045503;28;20041;-81
2021/01/30 11:29:31;;;;;;;14.15;6.63;;;;;;;;;;5053937;28;20090;-81
2021/01/30 11:31:59;;;;;;;11.65;5.97;;;;;;;;;;5053390;28;20052;-79
2021/01/30 11:34:27;;;;;;;7.88;4.45;;;;;;;;;;5039556;28;20127;-79
2021/01/30 11:36:54;;;;;;;8.80;4.88;;;;;;;;;;5044296;28;20041;-80
2021/01/30 11:39:25;;;;;;;10.10;4.20;;;;;;;;;;5026897;28;20073;-79
2021/01/30 11:41:52;;;;;;;12.02;5.35;;;;;;;;;;5052513;28;20082;-79
2021/01/30 11:44:19;;;;;;;11.60;4.10;;;;;;;;;;5051260;28;20045;-78
2021/01/30 11:46:46;;;;;;;7.55;3.80;;;;;;;;;;5035410;28;20124;-80
2021/01/30 11:49:13;;;;;;;11.88;4.43;;;;;;;;;;5042628;28;20477;-81
2021/01/30 11:51:39;;;;;;;9.15;3.80;;;;;;;;;;5051970;28;20073;-80
2021/01/30 11:54:06;;;;;;;9.60;4.55;;;;;;;;;;5046798;28;20153;-78
2021/01/30 11:56:33;;;;;;;5.47;3.70;;;;;;;;;;5030630;28;20095;-78
2021/01/30 11:58:59;;;;;;;8.50;3.97;;;;;;;;;;5051274;28;20076;-78
2021/01/30 12:01:26;;;;;;;5.28;3.30;;;;;;;;;;5048125;28;20083;-78
2021/01/30 12:03:53;;;;;;;10.25;3.38;;;;;;;;;;5049170;28;20049;-80
2021/01/30 12:06:21;;;;;;;7.82;3.13;;;;;;;;;;5029045;28;20506;-80
2021/01/30 12:08:48;;;;;;;5.40;3.00;;;;;;;;;;5051570;28;20103;-81
2021/01/30 12:11:18;;;;;;;5.40;3.13;;;;;;;;;;5052202;28;20522;-86
2021/01/30 12:13:46;;;;;;;8.73;3.00;;;;;;;;;;5051862;28;20129;-86
2021/01/30 12:16:15;;;;;;;6.63;3.28;;;;;;;;;;5051711;28;20477;-86
2021/01/30 12:18:42;;;;;;;5.40;3.30;;;;;;;;;;5051752;28;20115;-85
2021/01/30 12:21:15;;;;;;;6.05;3.50;;;;;;;;;;5037953;28;20781;-85
2021/01/30 12:23:42;;;;;;;5.45;3.15;;;;;;;;;;5052780;28;20080;-85
2021/01/30 12:26:12;;;;;;;8.98;3.45;;;;;;;;;;5052588;28;20107;-85
2021/01/30 12:28:39;;;;;;;10.05;4.18;;;;;;;;;;5052554;28;20045;-85
2021/01/30 12:31:08;;;;;;;11.02;3.80;;;;;;;;;;5052103;28;20120;-84
2021/01/30 12:33:35;;;;;;;8.85;3.55;;;;;;;;;;5054278;28;20585;-83
2021/01/30 12:36:08;;;;;;;8.23;3.03;;;;;;;;;;5051064;28;20045;-83
2021/01/30 12:38:35;;;;;;;11.85;3.65;;;;;;;;;;5043254;28;20136;-83
2021/01/30 12:41:02;;;;;;;8.80;3.67;;;;;;;;;;5051698;28;20516;-83
2021/01/30 12:43:34;;;;;;;17.65;7.70;;;;;;;;;;5050904;28;20083;-83
2021/01/30 12:46:00;;;;;;;9.23;4.75;;;;;;;;;;5044682;28;20081;-84
2021/01/30 12:48:27;;;;;;;9.45;4.35;;;;;;;;;;5039125;28;20133;-84
2021/01/30 12:51:02;;;;;;;10.23;4.50;;;;;;;;;;5051038;28;20044;-84
2021/01/30 12:53:30;;;;;;;12.73;5.93;;;;;;;;;;5052210;28;20451;-84
2021/01/30 12:55:57;;;;;;;8.05;3.08;;;;;;;;;;5044004;28;20041;-85
2021/01/30 12:58:30;;;;;;;6.93;3.55;;;;;;;;;;5052243;28;20756;-84
2021/01/30 13:00:58;;;;;;;9.45;4.43;;;;;;;;;;5042986;28;20079;-84
2021/01/30 13:03:25;;;;;;;11.95;5.38;;;;;;;;;;5051428;28;20045;-85
2021/01/30 13:05:52;;;;;;;9.25;4.28;;;;;;;;;;5035013;28;20045;-84
2021/01/30 13:08:19;;;;;;;10.15;3.20;;;;;;;;;;5052319;28;20488;-85
2021/01/30 13:10:46;;;;;;;6.38;3.25;;;;;;;;;;5052604;28;20088;-85
2021/01/30 13:13:13;;;;;;;9.82;3.92;;;;;;;;;;5042760;28;20076;-85
2021/01/30 13:15:40;;;;;;;8.23;4.28;;;;;;;;;;5043307;28;20571;-85
2021/01/30 13:18:08;;;;;;;11.02;4.75;;;;;;;;;;5041257;28;20436;-85
2021/01/30 13:20:35;;;;;;;21.75;9.40;;;;;;;;;;5054153;28;20041;-85
2021/01/30 13:23:04;;;;;;;35.83;17.92;;;;;;;;;;5046318;28;20103;-85
2021/01/30 13:25:31;;;;;;;29.17;14.45;;;;;;;;;;5038430;28;20051;-84
2021/01/30 13:27:58;;;;;;;24.20;11.25;;;;;;;;;;5056140;28;20052;-84
2021/01/30 13:30:31;;;;;;;8.45;4.20;;;;;;;;;;5037742;28;20728;-84
2021/01/30 13:33:01;;;;;;;9.90;3.40;;;;;;;;;;5047785;28;20123;-84
2021/01/30 13:35:35;;;;;;;12.40;3.70;;;;;;;;;;5055895;28;20107;-85
2021/01/30 13:38:02;;;;;;;11.70;4.25;;;;;;;;;;5047543;28;20049;-83
2021/01/30 13:40:30;;;;;;;9.32;3.80;;;;;;;;;;5048227;28;20129;-85
2021/01/30 13:43:00;;;;;;;10.57;5.05;;;;;;;;;;5037818;28;20390;-86
2021/01/30 13:45:27;;;;;;;24.15;9.30;;;;;;;;;;5046031;28;20079;-86
2021/01/30 13:47:55;;;;;;;13.10;5.85;;;;;;;;;;5055989;28;20511;-86
2021/01/30 13:50:32;;;;;;;37.63;15.10;;;;;;;;;;5052300;28;20071;-87
2021/01/30 13:53:02;;;;;;;13.55;5.82;;;;;;;;;;5030476;28;20120;-86
2021/01/30 13:55:29;;;;;;;42.10;8.48;;;;;;;;;;5046120;28;20098;-85
2021/01/30 13:57:57;;;;;;;16.45;7.55;;;;;;;;;;5046044;28;20043;-87
2021/01/30 14:00:24;;;;;;;16.80;7.20;;;;;;;;;;5054168;28;20060;-87
2021/01/30 14:02:51;;;;;;;20.10;7.85;;;;;;;;;;5037914;28;20672;-87
2021/01/30 14:05:25;;;;;;;19.73;8.90;;;;;;;;;;5053904;28;20048;-86
2021/01/30 14:07:59;;;;;;;30.60;14.07;;;;;;;;;;5056060;28;20485;-86
2021/01/30 14:10:26;;;;;;;12.57;6.75;;;;;;;;;;5047250;28;20045;-86
2021/01/30 14:12:54;;;;;;;13.55;6.68;;;;;;;;;;5036673;28;20128;-86
2021/01/30 14:15:20;;;;;;;12.00;5.53;;;;;;;;;;5054198;28;20103;-86
2021/01/30 14:17:49;;;;;;;43.90;23.08;;;;;;;;;;5053988;28;20077;-86
2021/01/30 14:20:16;;;;;;;17.20;8.13;;;;;;;;;;5037501;28;20049;-85
2021/01/30 14:22:45;;;;;;;14.45;7.70;;;;;;;;;;5053863;28;20045;-86
2021/01/30 14:25:11;;;;;;;20.17;10.40;;;;;;;;;;5054857;28;20045;-87
2021/01/30 14:27:38;;;;;;;39.85;18.13;;;;;;;;;;5037292;28;20076;-87
2021/01/30 14:30:06;;;;;;;23.63;10.82;;;;;;;;;;5037306;28;20531;-84
2021/01/30 14:32:33;;;;;;;18.20;9.55;;;;;;;;;;5035559;28;20075;-86
2021/01/30 14:35:00;;;;;;;25.58;10.25;;;;;;;;;;5054394;28;20444;-86
2021/01/30 14:37:33;;;;;;;16.15;8.10;;;;;;;;;;5054730;28;20068;-88
2021/01/30 14:40:00;;;;;;;131.05;47.75;;;;;;;;;;5050742;28;20454;-82
2021/01/30 14:42:27;;;;;;;47.85;18.38;;;;;;;;;;5053222;28;20064;-87
2021/01/30 14:44:54;;;;;;;22.65;10.75;;;;;;;;;;5041440;28;20131;-84
2021/01/30 14:47:23;;;;;;;27.08;12.05;;;;;;;;;;5054200;28;20453;-85
2021/01/30 14:49:51;;;;;;;29.90;12.18;;;;;;;;;;5051259;28;20064;-83
2021/01/30 14:52:17;;;;;;;21.48;8.65;;;;;;;;;;5030688;28;20110;-84
2021/01/30 14:54:44;;;;;;;186.95;24.75;;;;;;;;;;5044350;28;20076;-84